Time;durP1;ratioP1;P1;durP2;ratioP2;P2;SDS_P1;SDS_P2;PMS_P1;PMS_P2;Temp;Humidity;BMP_temperature;BMP_pressure;BME280_temperature;BME280_humidity;BME280_pressure;Samples;Min_cycle;Max_cycle;Signal;HPM_P1;HPM_P2
2021/09/27 00:00:16;;;;;;;22.00;13.45;;;;;;;;;;5102321;28;20024;-67
2021/09/27 00:02:42;;;;;;;21.60;13.30;;;;;;;;;;5098684;28;20023;-67
2021/09/27 00:05:10;;;;;;;26.63;15.00;;;;;;;;;;5108005;28;20522;-67
2021/09/27 00:07:36;;;;;;;32.05;15.30;;;;;;;;;;5109646;28;20053;-67
2021/09/27 00:10:03;;;;;;;29.25;15.95;;;;;;;;;;5107120;28;20424;-67
2021/09/27 00:12:29;;;;;;;23.33;14.32;;;;;;;;;;5105474;28;20042;-67
2021/09/27 00:14:55;;;;;;;26.67;14.20;;;;;;;;;;5107257;28;20471;-67
2021/09/27 00:17:21;;;;;;;29.48;15.65;;;;;;;;;;5109316;28;20043;-67
2021/09/27 00:19:47;;;;;;;26.63;15.48;;;;;;;;;;5111514;28;20060;-67
2021/09/27 00:22:13;;;;;;;36.58;15.85;;;;;;;;;;5096526;28;20039;-66
2021/09/27 00:24:39;;;;;;;32.38;16.42;;;;;;;;;;5110349;28;20055;-67
2021/09/27 00:27:05;;;;;;;31.67;16.08;;;;;;;;;;5111137;28;20020;-68
2021/09/27 00:29:31;;;;;;;32.53;16.05;;;;;;;;;;5111746;28;20034;-67
2021/09/27 00:31:57;;;;;;;41.97;16.17;;;;;;;;;;5097147;28;20047;-67
2021/09/27 00:34:23;;;;;;;28.83;14.82;;;;;;;;;;5114279;28;20098;-67
2021/09/27 00:36:49;;;;;;;30.20;15.85;;;;;;;;;;5111848;28;20031;-67
2021/09/27 00:39:15;;;;;;;34.35;16.90;;;;;;;;;;5110892;28;20028;-67
2021/09/27 00:41:42;;;;;;;37.33;16.65;;;;;;;;;;5105658;28;20085;-67
2021/09/27 00:44:08;;;;;;;41.67;18.67;;;;;;;;;;5110581;28;20035;-67
2021/09/27 00:46:34;;;;;;;46.95;18.30;;;;;;;;;;5112005;28;20023;-67
2021/09/27 00:49:01;;;;;;;44.13;18.77;;;;;;;;;;5112355;28;20103;-67
2021/09/27 00:51:33;;;;;;;75.70;18.58;;;;;;;;;;5106143;28;20038;-67
2021/09/27 00:54:01;;;;;;;52.55;17.38;;;;;;;;;;5110508;28;20050;-67
2021/09/27 00:56:32;;;;;;;37.97;16.80;;;;;;;;;;5104313;28;20023;-67
2021/09/27 00:59:00;;;;;;;31.83;16.08;;;;;;;;;;5110720;28;20103;-67
2021/09/27 01:01:26;;;;;;;26.03;15.00;;;;;;;;;;5099856;28;20017;-67
2021/09/27 01:03:53;;;;;;;24.98;15.02;;;;;;;;;;5113431;28;20343;-66
2021/09/27 01:06:27;;;;;;;24.60;15.43;;;;;;;;;;5110641;28;20406;-67
2021/09/27 01:09:12;;;;;;;29.92;16.08;;;;;;;;;;5110369;28;20035;-67
2021/09/27 01:11:54;;;;;;;30.67;15.13;;;;;;;;;;5106357;28;20030;-67
2021/09/27 01:14:20;;;;;;;29.67;15.93;;;;;;;;;;5098978;28;20028;-67
2021/09/27 01:16:53;;;;;;;55.40;17.58;;;;;;;;;;5110912;28;20031;-68
2021/09/27 01:19:30;;;;;;;57.75;16.50;;;;;;;;;;5110025;28;20036;-67
2021/09/27 01:22:09;;;;;;;52.20;17.83;;;;;;;;;;5108095;28;20379;-67
2021/09/27 01:24:38;;;;;;;60.30;17.40;;;;;;;;;;5109214;28;20066;-67
2021/09/27 01:27:23;;;;;;;318.20;21.20;;;;;;;;;;5110367;28;20112;-67
2021/09/27 01:30:04;;;;;;;696.53;30.33;;;;;;;;;;5109481;28;20401;-67
2021/09/27 01:32:33;;;;;;;586.50;25.50;;;;;;;;;;5099197;28;20375;-67
2021/09/27 01:35:07;;;;;;;272.90;19.45;;;;;;;;;;5110162;28;20016;-67
2021/09/27 01:37:54;;;;;;;119.13;16.45;;;;;;;;;;5111474;28;20036;-67
2021/09/27 01:40:33;;;;;;;112.00;16.85;;;;;;;;;;5104732;28;20032;-67
2021/09/27 01:43:15;;;;;;;312.23;20.60;;;;;;;;;;5109751;28;20078;-66
2021/09/27 01:45:45;;;;;;;75.20;15.25;;;;;;;;;;5104447;28;20128;-66
2021/09/27 01:48:16;;;;;;;225.38;15.90;;;;;;;;;;5109234;28;20027;-66
2021/09/27 01:51:02;;;;;;;155.75;14.55;;;;;;;;;;5109757;28;20034;-66
2021/09/27 01:53:31;;;;;;;219.55;16.63;;;;;;;;;;5091834;28;20039;-66
2021/09/27 01:56:11;;;;;;;271.75;16.40;;;;;;;;;;5101406;28;20027;-66
2021/09/27 01:58:43;;;;;;;282.98;16.77;;;;;;;;;;5111405;28;20495;-66
2021/09/27 02:01:18;;;;;;;209.15;15.07;;;;;;;;;;5100153;28;20028;-66
2021/09/27 02:03:47;;;;;;;209.10;15.77;;;;;;;;;;5109046;28;20031;-66
2021/09/27 02:06:24;;;;;;;223.43;15.40;;;;;;;;;;5109736;28;20036;-66
2021/09/27 02:08:57;;;;;;;177.02;15.73;;;;;;;;;;5109675;28;20090;-66
2021/09/27 02:11:23;;;;;;;140.45;15.27;;;;;;;;;;5104020;28;20020;-66
2021/09/27 02:14:08;;;;;;;135.80;14.02;;;;;;;;;;5109773;28;20103;-66
2021/09/27 02:16:35;;;;;;;156.80;13.60;;;;;;;;;;5108547;28;20023;-66
2021/09/27 02:19:11;;;;;;;70.50;14.77;;;;;;;;;;5110783;28;20027;-66
2021/09/27 02:21:39;;;;;;;166.45;15.25;;;;;;;;;;5109206;28;20030;-66
2021/09/27 02:24:08;;;;;;;60.20;12.88;;;;;;;;;;5108078;28;20051;-67
2021/09/27 02:26:34;;;;;;;111.35;13.63;;;;;;;;;;5108889;28;20520;-67
2021/09/27 02:29:00;;;;;;;141.85;15.30;;;;;;;;;;5109190;28;20051;-67
2021/09/27 02:31:37;;;;;;;121.60;13.13;;;;;;;;;;5098196;28;20072;-67
2021/09/27 02:34:28;;;;;;;200.05;15.85;;;;;;;;;;5110345;28;20019;-67
2021/09/27 02:36:59;;;;;;;294.35;16.20;;;;;;;;;;5111450;28;20027;-67
2021/09/27 02:39:33;;;;;;;350.88;18.20;;;;;;;;;;5108491;28;20035;-67
2021/09/27 02:41:59;;;;;;;354.23;19.83;;;;;;;;;;5103545;28;20023;-67
2021/09/27 02:44:25;;;;;;;136.35;15.85;;;;;;;;;;5108315;28;20020;-67
2021/09/27 02:46:55;;;;;;;182.80;16.75;;;;;;;;;;5108903;28;20023;-67
2021/09/27 02:49:26;;;;;;;331.17;19.52;;;;;;;;;;5112112;28;20076;-67
2021/09/27 02:51:53;;;;;;;328.83;15.95;;;;;;;;;;5109955;28;20480;-67
2021/09/27 02:54:29;;;;;;;475.45;20.88;;;;;;;;;;5102630;28;20367;-67
2021/09/27 02:56:55;;;;;;;410.70;20.95;;;;;;;;;;5108364;28;20223;-68
2021/09/27 02:59:44;;;;;;;343.83;20.35;;;;;;;;;;5108718;28;20038;-67
2021/09/27 03:02:10;;;;;;;346.55;17.50;;;;;;;;;;5095083;28;20034;-67
2021/09/27 03:04:36;;;;;;;380.38;18.50;;;;;;;;;;5110874;28;20015;-67
2021/09/27 03:07:11;;;;;;;334.90;15.32;;;;;;;;;;5110307;28;20028;-67
2021/09/27 03:09:44;;;;;;;174.52;13.00;;;;;;;;;;5102364;28;20489;-67
2021/09/27 03:12:10;;;;;;;186.45;11.80;;;;;;;;;;5108281;28;20023;-67
2021/09/27 03:14:36;;;;;;;236.88;13.95;;;;;;;;;;5107845;28;20442;-67
2021/09/27 03:17:07;;;;;;;191.70;12.60;;;;;;;;;;5108487;28;20028;-67
2021/09/27 03:19:43;;;;;;;141.43;13.13;;;;;;;;;;5110870;28;20034;-67
2021/09/27 03:22:28;;;;;;;131.10;12.32;;;;;;;;;;5110246;28;20020;-67
2021/09/27 03:25:10;;;;;;;107.20;12.10;;;;;;;;;;5109973;28;20023;-67
2021/09/27 03:27:43;;;;;;;113.65;12.70;;;;;;;;;;5107858;28;20403;-67
2021/09/27 03:30:28;;;;;;;286.33;15.30;;;;;;;;;;5104710;28;20134;-66
2021/09/27 03:33:00;;;;;;;141.90;14.98;;;;;;;;;;5101911;28;20035;-65
2021/09/27 03:35:41;;;;;;;182.95;13.27;;;;;;;;;;5100081;28;20027;-67
2021/09/27 03:38:23;;;;;;;67.95;11.07;;;;;;;;;;5103450;28;20038;-67
2021/09/27 03:40:58;;;;;;;57.42;12.27;;;;;;;;;;5102206;28;20045;-67
2021/09/27 03:43:27;;;;;;;29.05;11.82;;;;;;;;;;5104674;28;20479;-67
2021/09/27 03:45:56;;;;;;;134.73;12.68;;;;;;;;;;5110470;28;20110;-67
2021/09/27 03:48:34;;;;;;;172.00;12.98;;;;;;;;;;5108032;28;20027;-67
2021/09/27 03:51:02;;;;;;;131.18;12.88;;;;;;;;;;5108026;28;20030;-65
2021/09/27 03:53:47;;;;;;;168.35;14.00;;;;;;;;;;5111058;28;20055;-67
2021/09/27 03:56:18;;;;;;;218.10;14.98;;;;;;;;;;5111671;28;20028;-67
2021/09/27 03:58:49;;;;;;;282.30;16.33;;;;;;;;;;5112753;28;20039;-67
2021/09/27 04:01:31;;;;;;;464.92;20.40;;;;;;;;;;5102833;28;20103;-67
2021/09/27 04:04:11;;;;;;;266.05;15.73;;;;;;;;;;5114933;28;20372;-67
2021/09/27 04:06:43;;;;;;;246.15;17.95;;;;;;;;;;5111521;28;20073;-67
2021/09/27 04:09:18;;;;;;;248.07;16.58;;;;;;;;;;5111251;28;20110;-67
2021/09/27 04:11:50;;;;;;;160.10;16.98;;;;;;;;;;5106843;28;20068;-67
2021/09/27 04:14:16;;;;;;;399.58;19.92;;;;;;;;;;5111508;28;20482;-68
2021/09/27 04:16:52;;;;;;;266.92;17.17;;;;;;;;;;5112544;28;20065;-67
2021/09/27 04:19:23;;;;;;;389.65;17.60;;;;;;;;;;5110936;28;20073;-67
2021/09/27 04:22:03;;;;;;;166.13;13.98;;;;;;;;;;5110822;28;20096;-66
2021/09/27 04:24:29;;;;;;;180.02;14.27;;;;;;;;;;5111174;28;20118;-67
2021/09/27 04:27:10;;;;;;;36.38;11.93;;;;;;;;;;5110760;28;20149;-67
2021/09/27 04:29:42;;;;;;;99.85;12.43;;;;;;;;;;5111359;28;20103;-66
2021/09/27 04:32:17;;;;;;;53.75;10.68;;;;;;;;;;5098016;28;20027;-66
2021/09/27 04:34:49;;;;;;;171.07;11.52;;;;;;;;;;5112209;28;20418;-67
2021/09/27 04:37:17;;;;;;;125.68;11.05;;;;;;;;;;5114198;28;20030;-66
2021/09/27 04:39:43;;;;;;;;;;;;;;;;;;5111447;28;20032;-67
2021/09/27 04:42:24;;;;;;;85.28;12.00;;;;;;;;;;5104987;28;19915;-66
2021/09/27 04:44:53;;;;;;;247.05;15.93;;;;;;;;;;5105375;28;20028;-66
2021/09/27 04:47:32;;;;;;;42.88;13.45;;;;;;;;;;5110569;28;20467;-67
2021/09/27 04:50:16;;;;;;;229.43;16.92;;;;;;;;;;5096469;28;20049;-66
2021/09/27 04:52:55;;;;;;;78.47;12.45;;;;;;;;;;5111835;28;20027;-67
2021/09/27 04:55:23;;;;;;;77.70;14.52;;;;;;;;;;5110412;28;20027;-67
2021/09/27 04:57:59;;;;;;;82.63;13.13;;;;;;;;;;5110046;28;20088;-67
2021/09/27 05:00:25;;;;;;;272.23;14.88;;;;;;;;;;5104724;28;20081;-67
2021/09/27 05:03:06;;;;;;;221.88;16.90;;;;;;;;;;5102651;28;20027;-67
2021/09/27 05:05:51;;;;;;;212.30;14.23;;;;;;;;;;5108837;28;20073;-68
2021/09/27 05:08:27;;;;;;;247.55;14.50;;;;;;;;;;5102281;28;20020;-67
2021/09/27 05:11:12;;;;;;;258.33;16.23;;;;;;;;;;5106452;28;20059;-67
2021/09/27 05:13:50;;;;;;;88.65;11.38;;;;;;;;;;5102328;28;20453;-67
2021/09/27 05:16:21;;;;;;;113.95;13.25;;;;;;;;;;5103551;28;20492;-67
2021/09/27 05:18:50;;;;;;;145.13;14.13;;;;;;;;;;5111982;28;20051;-67
2021/09/27 05:21:19;;;;;;;114.28;12.45;;;;;;;;;;5109459;28;20081;-67
2021/09/27 05:24:03;;;;;;;105.05;12.02;;;;;;;;;;5110355;28;20028;-67
2021/09/27 05:26:50;;;;;;;39.22;13.57;;;;;;;;;;5109448;28;20024;-67
2021/09/27 05:29:31;;;;;;;40.53;15.18;;;;;;;;;;5110477;28;20135;-67
2021/09/27 05:32:09;;;;;;;39.22;14.95;;;;;;;;;;5094435;28;20482;-67
2021/09/27 05:35:01;;;;;;;40.03;15.38;;;;;;;;;;5100778;28;20066;-67
2021/09/27 05:37:33;;;;;;;46.72;16.45;;;;;;;;;;5094712;28;20050;-67
2021/09/27 05:40:08;;;;;;;56.85;15.43;;;;;;;;;;5101910;28;20054;-68
2021/09/27 05:42:37;;;;;;;44.60;14.65;;;;;;;;;;5102395;28;20031;-68
2021/09/27 05:45:03;;;;;;;42.10;14.90;;;;;;;;;;5101490;28;20442;-72
2021/09/27 05:47:34;;;;;;;697.67;25.75;;;;;;;;;;5102413;28;20028;-73
2021/09/27 05:50:03;;;;;;;169.35;18.10;;;;;;;;;;5102474;28;20072;-74
2021/09/27 05:52:35;;;;;;;246.15;16.60;;;;;;;;;;5101397;28;20062;-75
2021/09/27 05:55:04;;;;;;;82.55;14.00;;;;;;;;;;5101583;28;20458;-75
2021/09/27 05:57:45;;;;;;;32.88;13.48;;;;;;;;;;5101447;28;20020;-73
2021/09/27 06:00:13;;;;;;;39.88;14.63;;;;;;;;;;5101072;28;20109;-73
2021/09/27 06:02:49;;;;;;;74.40;15.00;;;;;;;;;;5099926;28;20058;-74
2021/09/27 06:05:22;;;;;;;59.92;16.25;;;;;;;;;;5109219;28;20020;-71
2021/09/27 06:07:51;;;;;;;42.53;15.82;;;;;;;;;;5103338;28;20027;-72
2021/09/27 06:10:36;;;;;;;43.25;16.80;;;;;;;;;;5105037;28;20379;-72
2021/09/27 06:13:02;;;;;;;41.92;16.73;;;;;;;;;;5104757;28;20111;-72
2021/09/27 06:15:34;;;;;;;40.60;16.35;;;;;;;;;;5104900;28;20095;-72
2021/09/27 06:18:24;;;;;;;41.97;17.00;;;;;;;;;;5105442;28;20062;-72
2021/09/27 06:20:50;;;;;;;31.88;14.52;;;;;;;;;;5100759;28;20119;-72
2021/09/27 06:23:16;;;;;;;27.30;14.00;;;;;;;;;;5103852;28;20111;-72
2021/09/27 06:25:50;;;;;;;28.45;13.38;;;;;;;;;;5103750;28;20043;-73
2021/09/27 06:28:16;;;;;;;27.88;13.50;;;;;;;;;;5104281;28;20059;-72
2021/09/27 06:30:52;;;;;;;28.73;13.65;;;;;;;;;;5105108;28;20076;-72
2021/09/27 06:33:24;;;;;;;204.23;15.18;;;;;;;;;;5102574;28;20039;-72
2021/09/27 06:35:52;;;;;;;192.93;16.80;;;;;;;;;;5104064;28;20023;-72
2021/09/27 06:38:18;;;;;;;;;;;;;;;;;;5103834;28;20154;-73
2021/09/27 06:40:45;;;;;;;23.17;12.48;;;;;;;;;;5103987;28;20010;-73
2021/09/27 06:43:16;;;;;;;20.17;11.95;;;;;;;;;;5104414;28;20020;-74
2021/09/27 06:45:41;;;;;;;18.00;9.93;;;;;;;;;;5104998;28;20019;-73
2021/09/27 06:48:07;;;;;;;13.73;9.10;;;;;;;;;;5104031;28;20031;-73
2021/09/27 06:50:33;;;;;;;14.55;8.85;;;;;;;;;;5100931;28;20027;-73
2021/09/27 06:52:59;;;;;;;14.68;9.13;;;;;;;;;;5105194;28;20020;-73
2021/09/27 06:55:27;;;;;;;15.48;9.23;;;;;;;;;;5098707;28;20372;-74
2021/09/27 06:57:53;;;;;;;11.52;8.95;;;;;;;;;;5103089;28;20483;-74
2021/09/27 07:00:19;;;;;;;12.55;9.07;;;;;;;;;;5102635;28;20026;-74
2021/09/27 07:02:45;;;;;;;13.13;8.57;;;;;;;;;;5104438;28;20550;-74
2021/09/27 07:05:11;;;;;;;17.00;9.35;;;;;;;;;;5100168;28;20020;-74
2021/09/27 07:07:38;;;;;;;12.02;8.88;;;;;;;;;;5102724;28;20519;-74
2021/09/27 07:10:06;;;;;;;15.48;8.95;;;;;;;;;;5102246;28;20109;-73
2021/09/27 07:12:32;;;;;;;13.82;8.77;;;;;;;;;;5098605;28;20028;-73
2021/09/27 07:14:58;;;;;;;14.52;9.25;;;;;;;;;;5099317;28;20016;-73
2021/09/27 07:17:24;;;;;;;11.90;8.52;;;;;;;;;;5107826;28;20027;-73
2021/09/27 07:19:50;;;;;;;14.45;8.35;;;;;;;;;;5108386;28;20035;-73
2021/09/27 07:22:16;;;;;;;11.85;8.50;;;;;;;;;;5111267;28;20027;-73
2021/09/27 07:24:42;;;;;;;22.15;9.00;;;;;;;;;;5107801;28;20028;-73
2021/09/27 07:27:08;;;;;;;14.27;8.48;;;;;;;;;;5107534;28;20027;-73
2021/09/27 07:29:34;;;;;;;12.13;7.93;;;;;;;;;;5107723;28;20027;-73
2021/09/27 07:32:00;;;;;;;13.52;7.68;;;;;;;;;;5093496;28;20162;-73
2021/09/27 07:34:26;;;;;;;18.20;8.18;;;;;;;;;;5110492;28;20030;-73
2021/09/27 07:36:52;;;;;;;12.48;8.13;;;;;;;;;;5108978;28;20020;-73
2021/09/27 07:39:19;;;;;;;11.00;8.13;;;;;;;;;;5101632;28;20505;-74
2021/09/27 07:41:45;;;;;;;14.90;7.88;;;;;;;;;;5102236;28;20016;-74
2021/09/27 07:44:11;;;;;;;10.50;8.55;;;;;;;;;;5107814;28;20113;-73
2021/09/27 07:46:37;;;;;;;13.43;8.75;;;;;;;;;;5108686;28;20494;-73
2021/09/27 07:49:04;;;;;;;11.50;8.80;;;;;;;;;;5107951;28;20016;-73
2021/09/27 07:51:30;;;;;;;13.45;8.40;;;;;;;;;;5107544;28;20047;-75
2021/09/27 07:53:56;;;;;;;12.52;8.63;;;;;;;;;;5108212;28;20051;-74
2021/09/27 07:56:22;;;;;;;14.00;9.77;;;;;;;;;;5102623;28;20513;-74
2021/09/27 07:58:48;;;;;;;15.70;10.18;;;;;;;;;;5100233;28;20452;-74
2021/09/27 08:01:14;;;;;;;15.57;10.73;;;;;;;;;;5102054;28;20024;-74
2021/09/27 08:03:41;;;;;;;16.90;9.70;;;;;;;;;;5101224;28;20385;-75
2021/09/27 08:06:07;;;;;;;15.93;10.23;;;;;;;;;;5100785;28;20035;-74
2021/09/27 08:08:33;;;;;;;23.40;10.75;;;;;;;;;;5101201;28;20024;-75
2021/09/27 08:11:00;;;;;;;17.15;9.98;;;;;;;;;;5101787;28;20502;-74
2021/09/27 08:13:26;;;;;;;14.10;9.77;;;;;;;;;;5100527;28;20052;-75
2021/09/27 08:15:53;;;;;;;13.00;9.55;;;;;;;;;;5100975;28;20016;-75
2021/09/27 08:18:20;;;;;;;;;;;;;;;;;;5101645;28;20115;-74
2021/09/27 08:20:46;;;;;;;13.23;9.20;;;;;;;;;;5098050;28;19962;-74
2021/09/27 08:23:12;;;;;;;13.00;8.55;;;;;;;;;;5098259;28;20093;-75
2021/09/27 08:25:38;;;;;;;15.52;10.00;;;;;;;;;;5102137;28;20463;-74
2021/09/27 08:28:05;;;;;;;14.55;10.23;;;;;;;;;;5101610;28;20044;-75
2021/09/27 08:30:34;;;;;;;14.68;9.65;;;;;;;;;;5100550;28;20016;-75
2021/09/27 08:33:01;;;;;;;14.38;9.50;;;;;;;;;;5100710;28;20039;-75
2021/09/27 08:35:27;;;;;;;15.23;9.73;;;;;;;;;;5100582;28;20032;-75
2021/09/27 08:37:54;;;;;;;13.50;9.88;;;;;;;;;;5101389;28;20055;-75
2021/09/27 08:40:29;;;;;;;17.80;10.43;;;;;;;;;;5106336;28;20110;-75
2021/09/27 08:42:55;;;;;;;15.80;9.98;;;;;;;;;;5105538;28;20036;-75
2021/09/27 08:45:23;;;;;;;13.55;10.43;;;;;;;;;;5099462;28;20030;-75
2021/09/27 08:48:02;;;;;;;16.50;10.40;;;;;;;;;;5105350;28;20022;-74
2021/09/27 08:50:33;;;;;;;15.68;11.13;;;;;;;;;;5102822;28;20483;-74
2021/09/27 08:53:02;;;;;;;18.77;10.75;;;;;;;;;;5103071;28;20091;-74
2021/09/27 08:55:30;;;;;;;14.98;10.55;;;;;;;;;;5104380;28;20506;-74
2021/09/27 08:58:05;;;;;;;14.98;10.52;;;;;;;;;;5107748;28;20119;-74
2021/09/27 09:00:34;;;;;;;16.02;11.13;;;;;;;;;;5104207;28;20278;-73
2021/09/27 09:03:16;;;;;;;14.98;10.50;;;;;;;;;;5098200;28;20024;-74
2021/09/27 09:05:48;;;;;;;15.73;10.07;;;;;;;;;;5110673;28;20030;-73
2021/09/27 09:08:14;;;;;;;15.18;10.98;;;;;;;;;;5110988;28;20020;-74
2021/09/27 09:10:47;;;;;;;17.20;11.60;;;;;;;;;;5107000;28;20065;-73
2021/09/27 09:13:15;;;;;;;19.73;10.80;;;;;;;;;;5113093;28;20047;-73
2021/09/27 09:15:42;;;;;;;14.55;10.48;;;;;;;;;;5104957;28;20028;-73
2021/09/27 09:18:08;;;;;;;15.63;10.30;;;;;;;;;;5110534;28;20544;-73
2021/09/27 09:20:37;;;;;;;13.10;10.25;;;;;;;;;;5109981;28;20542;-74
2021/09/27 09:23:05;;;;;;;15.30;10.65;;;;;;;;;;5110259;28;20088;-74
2021/09/27 09:25:35;;;;;;;14.98;10.52;;;;;;;;;;5112228;28;20012;-74
2021/09/27 09:28:03;;;;;;;14.93;10.90;;;;;;;;;;5111589;28;20066;-74
2021/09/27 09:30:44;;;;;;;16.08;10.48;;;;;;;;;;5104081;28;20093;-74
2021/09/27 09:33:10;;;;;;;12.18;9.02;;;;;;;;;;5104881;28;20020;-74
2021/09/27 09:35:36;;;;;;;14.50;10.55;;;;;;;;;;5109837;28;20043;-73
2021/09/27 09:38:10;;;;;;;14.52;10.55;;;;;;;;;;5110049;28;20036;-77
2021/09/27 09:40:50;;;;;;;16.13;9.50;;;;;;;;;;5101576;28;20035;-77
2021/09/27 09:43:36;;;;;;;13.23;8.93;;;;;;;;;;5108212;28;20050;-74
2021/09/27 09:46:31;;;;;;;13.05;9.80;;;;;;;;;;5111347;28;20034;-72
2021/09/27 09:48:57;;;;;;;15.90;10.68;;;;;;;;;;5113037;28;20036;-72
2021/09/27 09:51:28;;;;;;;12.73;10.07;;;;;;;;;;5109752;28;20042;-72
2021/09/27 09:54:02;;;;;;;13.25;10.27;;;;;;;;;;5109426;28;20571;-73
2021/09/27 09:56:33;;;;;;;11.07;9.10;;;;;;;;;;5111081;28;20023;-70
2021/09/27 09:59:00;;;;;;;15.05;9.95;;;;;;;;;;5109664;28;20043;-69
2021/09/27 10:01:30;;;;;;;13.27;9.80;;;;;;;;;;5108275;28;20471;-69
2021/09/27 10:04:10;;;;;;;12.25;9.85;;;;;;;;;;5113127;28;20046;-69
2021/09/27 10:06:39;;;;;;;14.38;9.60;;;;;;;;;;5108978;28;20023;-69
2021/09/27 10:09:07;;;;;;;17.42;9.52;;;;;;;;;;5109600;28;20031;-69
2021/09/27 10:11:33;;;;;;;12.95;9.95;;;;;;;;;;5103625;28;20059;-69
2021/09/27 10:14:00;;;;;;;14.50;10.65;;;;;;;;;;5108893;28;20059;-69
2021/09/27 10:16:29;;;;;;;16.17;10.52;;;;;;;;;;5112213;28;20023;-69
2021/09/27 10:19:12;;;;;;;13.35;10.10;;;;;;;;;;5103556;28;20039;-69
2021/09/27 10:21:38;;;;;;;14.02;10.10;;;;;;;;;;5107977;28;20028;-68
2021/09/27 10:24:19;;;;;;;15.35;9.88;;;;;;;;;;5108698;28;20107;-70
2021/09/27 10:26:52;;;;;;;13.20;10.65;;;;;;;;;;5102828;28;20031;-67
2021/09/27 10:29:20;;;;;;;17.10;10.60;;;;;;;;;;5100806;28;20045;-66
2021/09/27 10:31:54;;;;;;;13.98;11.15;;;;;;;;;;5082928;28;20027;-68
2021/09/27 10:34:21;;;;;;;13.85;9.80;;;;;;;;;;5106388;28;20032;-68
2021/09/27 10:36:56;;;;;;;14.70;10.73;;;;;;;;;;5109477;28;20036;-68
2021/09/27 10:39:23;;;;;;;15.95;10.82;;;;;;;;;;5107420;28;20020;-67
2021/09/27 10:41:57;;;;;;;17.73;10.52;;;;;;;;;;5101661;28;20136;-68
2021/09/27 10:44:26;;;;;;;13.93;10.13;;;;;;;;;;5107097;28;20064;-68
2021/09/27 10:47:02;;;;;;;12.32;10.35;;;;;;;;;;5090782;28;20421;-67
2021/09/27 10:49:31;;;;;;;13.57;9.85;;;;;;;;;;5107675;28;20102;-68
2021/09/27 10:52:08;;;;;;;14.77;9.95;;;;;;;;;;5108753;28;20059;-67
2021/09/27 10:54:42;;;;;;;18.02;10.65;;;;;;;;;;5095670;28;20024;-66
2021/09/27 10:57:17;;;;;;;15.07;10.57;;;;;;;;;;5091159;28;20081;-67
2021/09/27 10:59:43;;;;;;;14.20;10.98;;;;;;;;;;5099175;28;20035;-67
2021/09/27 11:02:15;;;;;;;15.10;10.18;;;;;;;;;;5093592;28;20051;-59
2021/09/27 11:04:43;;;;;;;14.32;9.82;;;;;;;;;;5109783;28;20365;-59
2021/09/27 11:07:21;;;;;;;13.68;9.75;;;;;;;;;;5110439;28;20106;-59
2021/09/27 11:09:47;;;;;;;21.98;11.70;;;;;;;;;;5105181;28;20031;-59
2021/09/27 11:12:19;;;;;;;13.52;10.18;;;;;;;;;;5104349;28;20474;-59
2021/09/27 11:14:49;;;;;;;14.25;9.85;;;;;;;;;;5101758;28;20061;-59
2021/09/27 11:17:25;;;;;;;16.15;10.45;;;;;;;;;;5109264;28;20028;-59
2021/09/27 11:20:14;;;;;;;12.80;10.10;;;;;;;;;;5093745;28;20027;-59
2021/09/27 11:22:43;;;;;;;12.52;10.15;;;;;;;;;;5091621;28;20038;-59
2021/09/27 11:25:21;;;;;;;14.23;10.82;;;;;;;;;;5100488;28;20030;-59
2021/09/27 11:28:06;;;;;;;14.05;10.18;;;;;;;;;;5101013;28;20078;-59
2021/09/27 11:30:51;;;;;;;16.17;10.48;;;;;;;;;;5103114;28;20036;-58
2021/09/27 11:33:40;;;;;;;14.02;9.88;;;;;;;;;;5088881;28;20063;-59
2021/09/27 11:36:22;;;;;;;14.38;10.07;;;;;;;;;;5095349;28;20119;-59
2021/09/27 11:38:49;;;;;;;16.48;11.18;;;;;;;;;;5107571;28;20035;-59
2021/09/27 11:41:15;;;;;;;17.02;9.60;;;;;;;;;;5103011;28;20463;-59
2021/09/27 11:43:50;;;;;;;13.98;10.30;;;;;;;;;;5098003;28;20567;-59
2021/09/27 11:46:19;;;;;;;15.73;10.05;;;;;;;;;;5110363;28;20096;-58
2021/09/27 11:49:04;;;;;;;14.48;9.88;;;;;;;;;;5097690;28;20762;-59
2021/09/27 11:51:32;;;;;;;15.40;10.15;;;;;;;;;;5105479;28;20479;-58
2021/09/27 11:54:02;;;;;;;15.20;11.45;;;;;;;;;;5107083;28;20023;-59
2021/09/27 11:56:31;;;;;;;16.35;10.02;;;;;;;;;;5096541;28;20027;-59
2021/09/27 11:59:04;;;;;;;13.05;9.80;;;;;;;;;;5091226;28;20055;-59
2021/09/27 12:01:30;;;;;;;13.07;10.35;;;;;;;;;;5101463;28;20046;-59
2021/09/27 12:04:03;;;;;;;13.88;10.45;;;;;;;;;;5108393;28;20024;-58
2021/09/27 12:06:32;;;;;;;15.63;11.20;;;;;;;;;;5107461;28;20024;-59
2021/09/27 12:09:04;;;;;;;15.18;11.05;;;;;;;;;;5107606;28;20051;-58
2021/09/27 12:11:32;;;;;;;15.13;11.25;;;;;;;;;;5102209;28;20035;-59
2021/09/27 12:14:01;;;;;;;13.57;10.27;;;;;;;;;;5110762;28;20160;-59
2021/09/27 12:16:29;;;;;;;14.88;11.10;;;;;;;;;;5113859;28;20020;-59
2021/09/27 12:18:59;;;;;;;18.58;12.07;;;;;;;;;;5109183;28;20042;-59
2021/09/27 12:21:27;;;;;;;15.18;10.88;;;;;;;;;;5110891;28;20015;-59
2021/09/27 12:23:55;;;;;;;16.90;12.15;;;;;;;;;;5104919;28;20028;-59
2021/09/27 12:26:28;;;;;;;14.15;11.32;;;;;;;;;;5104579;28;20031;-59
2021/09/27 12:29:05;;;;;;;13.85;10.05;;;;;;;;;;5095316;28;20076;-58
2021/09/27 12:31:32;;;;;;;18.77;11.45;;;;;;;;;;5099349;28;20016;-60
2021/09/27 12:34:06;;;;;;;12.43;8.95;;;;;;;;;;5111597;28;20032;-58
2021/09/27 12:36:32;;;;;;;13.48;9.95;;;;;;;;;;5110300;28;20011;-58
2021/09/27 12:38:58;;;;;;;14.07;11.00;;;;;;;;;;5111046;28;20039;-59
2021/09/27 12:41:26;;;;;;;14.30;11.07;;;;;;;;;;5105687;28;20053;-58
2021/09/27 12:43:52;;;;;;;16.33;11.90;;;;;;;;;;5110931;28;20095;-59
2021/09/27 12:46:22;;;;;;;14.02;10.80;;;;;;;;;;5110381;28;20126;-59
2021/09/27 12:48:53;;;;;;;14.90;10.95;;;;;;;;;;5112954;28;20157;-59
2021/09/27 12:51:29;;;;;;;16.35;12.10;;;;;;;;;;5110047;28;20023;-58
2021/09/27 12:54:04;;;;;;;12.55;9.80;;;;;;;;;;5111029;28;20030;-58
2021/09/27 12:56:31;;;;;;;12.88;10.10;;;;;;;;;;5110627;28;20077;-58
2021/09/27 12:58:59;;;;;;;14.57;11.20;;;;;;;;;;5107886;28;20110;-58
2021/09/27 13:01:26;;;;;;;15.55;10.88;;;;;;;;;;5099855;28;20040;-59
2021/09/27 13:04:04;;;;;;;12.68;9.82;;;;;;;;;;5111540;28;20098;-59
2021/09/27 13:06:31;;;;;;;14.38;10.90;;;;;;;;;;5110086;28;20028;-59
2021/09/27 13:09:03;;;;;;;13.45;9.82;;;;;;;;;;5110184;28;20032;-59
2021/09/27 13:11:29;;;;;;;13.57;10.48;;;;;;;;;;5105729;28;20030;-59
2021/09/27 13:13:58;;;;;;;11.45;9.07;;;;;;;;;;5109111;28;20395;-58
2021/09/27 13:16:25;;;;;;;11.40;9.32;;;;;;;;;;5113887;28;20034;-58
2021/09/27 13:18:51;;;;;;;13.43;10.73;;;;;;;;;;5107902;28;20575;-59
2021/09/27 13:21:17;;;;;;;14.65;11.27;;;;;;;;;;5108151;28;20536;-58
2021/09/27 13:23:55;;;;;;;12.98;10.10;;;;;;;;;;5109551;28;20035;-59
2021/09/27 13:26:21;;;;;;;;;;;;;;;;;;5110289;28;20395;-58
2021/09/27 13:28:52;;;;;;;17.67;11.13;;;;;;;;;;5107838;28;19935;-59
2021/09/27 13:31:20;;;;;;;15.32;11.52;;;;;;;;;;5113930;28;20461;-58
2021/09/27 13:34:15;;;;;;;14.85;11.38;;;;;;;;;;5109880;28;20101;-58
2021/09/27 13:36:45;;;;;;;16.23;11.70;;;;;;;;;;5094659;28;20050;-59
2021/09/27 13:39:15;;;;;;;15.18;11.32;;;;;;;;;;5109655;28;20049;-58
2021/09/27 13:41:46;;;;;;;14.68;11.32;;;;;;;;;;5108665;28;20073;-58
2021/09/27 13:44:27;;;;;;;16.15;11.10;;;;;;;;;;5110195;28;20028;-58
2021/09/27 13:46:53;;;;;;;13.43;11.02;;;;;;;;;;5093508;28;20089;-58
2021/09/27 13:49:18;;;;;;;16.90;10.70;;;;;;;;;;5113388;28;20455;-58
2021/09/27 13:51:46;;;;;;;17.10;11.68;;;;;;;;;;5109160;28;20024;-58
2021/09/27 13:54:14;;;;;;;;;;;;;;;;;;5109968;28;20070;-58
2021/09/27 13:56:39;;;;;;;;;;;;;;;;;;5107545;28;19912;-59
2021/09/27 13:59:07;;;;;;;15.57;10.27;;;;;;;;;;5094071;28;20048;-67
2021/09/27 14:01:33;;;;;;;13.68;10.95;;;;;;;;;;5101201;28;20017;-67
2021/09/27 14:03:59;;;;;;;13.68;10.98;;;;;;;;;;5103269;28;20065;-69
2021/09/27 14:06:26;;;;;;;14.93;11.02;;;;;;;;;;5102815;28;20062;-67
2021/09/27 14:08:52;;;;;;;14.93;11.05;;;;;;;;;;5102149;28;20027;-67
2021/09/27 14:11:18;;;;;;;13.98;10.95;;;;;;;;;;5103142;28;20388;-67
2021/09/27 14:13:45;;;;;;;14.73;10.38;;;;;;;;;;5102505;28;20036;-67
2021/09/27 14:16:13;;;;;;;12.43;10.88;;;;;;;;;;5103370;28;20479;-67
2021/09/27 14:18:38;;;;;;;;;;;;;;;;;;5102506;28;20039;-67
2021/09/27 14:21:05;;;;;;;15.10;11.50;;;;;;;;;;5101762;28;19908;-67
2021/09/27 14:23:31;;;;;;;12.83;10.37;;;;;;;;;;5101834;28;20019;-68
2021/09/27 14:25:58;;;;;;;16.63;11.00;;;;;;;;;;5102393;28;20035;-67
2021/09/27 14:28:26;;;;;;;16.00;11.27;;;;;;;;;;5102793;28;20372;-68
2021/09/27 14:30:52;;;;;;;;;;;;;;;;;;5105422;28;20078;-67
2021/09/27 14:33:18;;;;;;;15.05;11.27;;;;;;;;;;5101889;28;19904;-67
2021/09/27 14:35:44;;;;;;;14.50;11.02;;;;;;;;;;5101323;28;20648;-67
2021/09/27 14:38:11;;;;;;;17.05;11.40;;;;;;;;;;5101970;28;20036;-67
2021/09/27 14:40:37;;;;;;;13.60;10.82;;;;;;;;;;5104766;28;20020;-67